Paint Rock, Texas
Current Conditions -  °F | °C
As of 12:51 PM on Thursday 23 Oct 2014 (Local Time) from KSJT Reporting Station
Overcast Overcast  
Wind Chill: 74°   Ceiling: 2300
Heat Index: 74°   Visibility: 10mi
Dew Point: 62°   Wind: 13mph
Humidity: 66%   Direction: 210°SSW
Pressure: 30.15"   Gusts: NA
Location:  31.51°N, 99.92°W
Report Text: KSJT 231751Z 21011KT 10SM OVC023 23/17 A3015 RMK AO2 SLP196 T02330167 10233 20111 58003
Loading
Personal Weather Stations






























Interactive Weather Map
Tropical Storm Tracking
New forecast layout! Learn more

10-Day Weather Forecast

Advertisements
Track Severe Weather on mobile